createdAt,value
2019-06-08T00:01:39.717Z,16.03
2019-06-08T00:04:08.915Z,15.38
2019-06-08T00:06:38.117Z,15.35
2019-06-08T00:09:07.467Z,15.51
2019-06-08T00:11:36.679Z,15.83
2019-06-08T00:14:05.904Z,15.67
2019-06-08T00:16:35.049Z,15.50
2019-06-08T00:19:04.286Z,15.78
2019-06-08T00:21:33.620Z,15.79
2019-06-08T00:24:02.796Z,15.74
2019-06-08T00:26:32.006Z,15.91
2019-06-08T00:29:01.303Z,16.06
2019-06-08T00:31:30.486Z,16.24
2019-06-08T00:33:59.667Z,16.31
2019-06-08T00:36:28.913Z,16.21
2019-06-08T00:38:58.127Z,15.55
2019-06-08T00:41:27.287Z,15.65
2019-06-08T00:43:56.480Z,15.83
2019-06-08T00:46:25.783Z,16.05
2019-06-08T00:48:55.039Z,16.15
2019-06-08T00:51:25.592Z,15.86
2019-06-08T00:53:55.171Z,15.70
2019-06-08T00:56:25.856Z,15.42
2019-06-08T00:58:55.191Z,15.45
2019-06-08T01:01:26.334Z,15.46
2019-06-08T01:03:55.309Z,15.58
2019-06-08T01:06:25.008Z,15.69
2019-06-08T01:08:54.492Z,15.90
2019-06-08T01:11:24.736Z,15.56
2019-06-08T01:13:53.950Z,15.39
2019-06-08T01:16:23.142Z,15.59
2019-06-08T01:18:52.367Z,15.64
2019-06-08T01:21:21.609Z,15.29
2019-06-08T01:23:51.015Z,15.30
2019-06-08T01:26:20.247Z,14.90
2019-06-08T01:28:49.543Z,15.15
2019-06-08T01:31:20.274Z,15.10
2019-06-08T01:33:49.722Z,15.18
2019-06-08T01:36:18.922Z,15.38
2019-06-08T01:38:48.191Z,15.27
2019-06-08T01:41:17.491Z,15.59
2019-06-08T01:43:46.721Z,15.46
2019-06-08T01:46:15.892Z,15.16
2019-06-08T01:48:45.087Z,15.48
2019-06-08T01:51:14.341Z,15.25
2019-06-08T01:53:43.522Z,15.59
2019-06-08T01:56:12.693Z,15.74
2019-06-08T01:58:41.939Z,15.36
2019-06-08T02:01:11.210Z,15.25
2019-06-08T02:03:40.392Z,14.85
2019-06-08T02:06:09.643Z,15.56
2019-06-08T02:08:38.872Z,15.73
2019-06-08T02:11:08.208Z,15.56
2019-06-08T02:13:37.383Z,15.59
2019-06-08T02:16:07.407Z,14.80
2019-06-08T02:18:49.006Z,15.45
2019-06-08T02:21:08.682Z,15.45
2019-06-08T02:23:37.919Z,15.29
2019-06-08T02:26:07.353Z,14.92
2019-06-08T02:28:36.500Z,15.15
2019-06-08T02:31:05.686Z,14.84
2019-06-08T02:33:36.875Z,15.36
2019-06-08T02:36:06.261Z,15.65
2019-06-08T02:38:36.133Z,15.49
2019-06-08T02:41:06.090Z,15.18
2019-06-08T02:43:36.166Z,15.50
2019-06-08T02:46:06.353Z,15.51
2019-06-08T02:48:40.857Z,15.32
2019-06-08T02:51:08.204Z,15.31
2019-06-08T02:53:38.847Z,15.32
2019-06-08T02:56:09.451Z,15.27
2019-06-08T02:58:41.776Z,15.26
2019-06-08T03:01:11.078Z,15.08
2019-06-08T03:03:41.201Z,14.94
2019-06-08T03:06:10.370Z,14.92
2019-06-08T03:08:41.421Z,15.03
2019-06-08T03:11:10.733Z,15.13
2019-06-08T03:13:42.418Z,15.07
2019-06-08T03:16:12.058Z,15.04
2019-06-08T03:18:42.662Z,14.89
2019-06-08T03:21:11.873Z,14.95
2019-06-08T03:23:43.167Z,15.16
2019-06-08T03:26:12.056Z,15.03
2019-06-08T03:28:42.305Z,14.96
2019-06-08T03:31:12.344Z,14.70
2019-06-08T03:33:50.798Z,14.85
2019-06-08T03:36:12.630Z,14.82
2019-06-08T03:38:42.556Z,14.86
2019-06-08T03:41:12.876Z,15.02
2019-06-08T03:43:42.537Z,14.72
2019-06-08T03:46:11.688Z,14.78
2019-06-08T03:48:42.227Z,14.50
2019-06-08T03:51:11.919Z,14.68
2019-06-08T03:53:42.648Z,14.78
2019-06-08T03:56:12.293Z,15.19
2019-06-08T03:58:42.925Z,14.96
2019-06-08T04:01:12.631Z,15.00
2019-06-08T04:03:43.804Z,14.89
2019-06-08T04:06:13.079Z,14.79
2019-06-08T04:08:44.896Z,14.62
2019-06-08T04:11:13.452Z,14.71
2019-06-08T04:13:44.449Z,14.88
2019-06-08T04:16:13.598Z,14.82
2019-06-08T04:18:44.635Z,14.80
2019-06-08T04:21:13.888Z,14.81
2019-06-08T04:23:44.897Z,14.93
2019-06-08T04:26:13.988Z,14.76
2019-06-08T04:28:44.777Z,14.77
2019-06-08T04:31:14.101Z,14.85
2019-06-08T04:33:44.299Z,14.90
2019-06-08T04:36:13.586Z,14.93
2019-06-08T04:38:43.337Z,15.07
2019-06-08T04:41:12.606Z,15.08
2019-06-08T04:43:42.786Z,15.24
2019-06-08T04:46:12.524Z,15.13
2019-06-08T04:48:43.095Z,15.12
2019-06-08T04:51:12.768Z,15.28
2019-06-08T04:53:43.240Z,15.25
2019-06-08T04:56:12.957Z,15.60
2019-06-08T04:58:44.737Z,15.59
2019-06-08T05:01:13.474Z,15.42
2019-06-08T05:03:43.297Z,15.50
2019-06-08T05:06:12.755Z,15.52
2019-06-08T05:08:43.158Z,15.61
2019-06-08T05:11:12.481Z,15.65
2019-06-08T05:13:43.188Z,15.52
2019-06-08T05:16:12.555Z,15.70
2019-06-08T05:18:43.114Z,15.17
2019-06-08T05:21:12.396Z,15.28
2019-06-08T05:23:41.530Z,15.40
2019-06-08T05:26:10.732Z,15.39
2019-06-08T05:28:41.047Z,15.20
2019-06-08T05:31:10.491Z,15.24
2019-06-08T05:33:39.683Z,15.43
2019-06-08T05:36:09.030Z,15.50
2019-06-08T05:38:39.382Z,15.70
2019-06-08T05:41:08.876Z,15.43
2019-06-08T05:43:39.460Z,15.20
2019-06-08T05:46:08.881Z,15.27
2019-06-08T05:48:38.080Z,15.60
2019-06-08T05:51:07.357Z,15.80
2019-06-08T05:53:36.744Z,15.83
2019-06-08T05:56:06.197Z,15.88
2019-06-08T05:58:35.413Z,16.11
2019-06-08T06:01:04.601Z,16.00
2019-06-08T06:03:33.835Z,15.73
2019-06-08T06:06:03.078Z,15.66
2019-06-08T06:08:32.331Z,16.22
2019-06-08T06:11:01.571Z,16.08
2019-06-08T06:13:30.739Z,15.85
2019-06-08T06:15:59.921Z,15.88
2019-06-08T06:18:29.172Z,15.97
2019-06-08T06:21:10.564Z,16.12
2019-06-08T06:23:29.559Z,16.59
2019-06-08T06:25:58.718Z,16.39
2019-06-08T06:28:28.018Z,16.40
2019-06-08T06:30:57.212Z,15.99
2019-06-08T06:33:26.441Z,15.75
2019-06-08T06:35:55.596Z,15.78
2019-06-08T06:38:24.954Z,16.06
2019-06-08T06:40:54.167Z,16.19
2019-06-08T06:43:23.444Z,16.52
2019-06-08T06:45:52.598Z,16.71
2019-06-08T06:48:23.526Z,16.56
2019-06-08T06:50:52.792Z,16.62
2019-06-08T06:53:22.138Z,16.84
2019-06-08T06:55:51.414Z,16.67
2019-06-08T06:58:20.660Z,15.99
2019-06-08T07:00:49.970Z,16.12
2019-06-08T07:03:19.120Z,16.32
2019-06-08T07:05:48.438Z,16.79
2019-06-08T07:08:17.694Z,17.17
2019-06-08T07:10:46.934Z,17.47
2019-06-08T07:13:16.119Z,17.96
2019-06-08T07:15:45.304Z,17.92
2019-06-08T07:18:14.479Z,17.72
2019-06-08T07:20:43.784Z,17.43
2019-06-08T07:23:12.994Z,17.33
2019-06-08T07:25:42.244Z,17.96
2019-06-08T07:28:11.423Z,17.75
2019-06-08T07:30:40.647Z,17.81
2019-06-08T07:33:09.801Z,17.86
2019-06-08T07:35:39.054Z,18.43
2019-06-08T07:38:08.348Z,18.10
2019-06-08T07:40:37.491Z,18.25
2019-06-08T07:43:06.665Z,18.27
2019-06-08T07:45:35.929Z,18.46
2019-06-08T07:48:05.140Z,18.20
2019-06-08T07:50:34.331Z,18.77
2019-06-08T07:53:03.570Z,19.11
2019-06-08T07:55:32.763Z,19.49
2019-06-08T07:58:02.011Z,18.93
2019-06-08T08:00:31.544Z,19.15
2019-06-08T08:03:00.811Z,19.26
2019-06-08T08:05:30.020Z,19.34
2019-06-08T08:07:59.261Z,19.90
2019-06-08T08:10:28.454Z,19.66
2019-06-08T08:12:58.839Z,20.80
2019-06-08T08:15:28.361Z,20.58
2019-06-08T08:17:57.802Z,20.63
2019-06-08T08:20:26.976Z,21.18
2019-06-08T08:23:02.411Z,20.85
2019-06-08T08:28:10.199Z,21.78
2019-06-08T08:30:39.449Z,22.70
2019-06-08T08:33:08.718Z,21.59
2019-06-08T08:35:38.234Z,22.26
2019-06-08T08:38:07.759Z,22.40
2019-06-08T08:40:38.777Z,22.04
2019-06-08T08:43:09.412Z,21.85
2019-06-08T08:45:40.107Z,22.92
2019-06-08T08:48:21.473Z,23.23
2019-06-08T08:50:40.767Z,23.17
2019-06-08T08:53:10.113Z,22.97
2019-06-08T08:55:39.326Z,23.46
2019-06-08T08:58:08.608Z,22.95
2019-06-08T09:00:41.099Z,23.81
2019-06-08T09:03:27.898Z,24.59
2019-06-08T09:05:39.770Z,23.92
2019-06-08T09:08:09.251Z,23.93
2019-06-08T09:10:38.592Z,24.43
2019-06-08T09:13:09.291Z,22.89
2019-06-08T09:15:39.088Z,23.91
2019-06-08T09:18:08.389Z,24.32
2019-06-08T09:20:38.025Z,24.68
2019-06-08T09:23:15.792Z,23.87
2019-06-08T09:25:40.665Z,24.72
2019-06-08T09:28:10.017Z,24.51
2019-06-08T09:30:39.456Z,24.54
2019-06-08T09:33:08.682Z,24.98
2019-06-08T09:35:37.998Z,26.26
2019-06-08T09:38:08.529Z,25.50
2019-06-08T09:40:38.695Z,24.92
2019-06-08T09:43:12.300Z,24.72
2019-06-08T09:45:39.277Z,25.28
2019-06-08T09:48:09.434Z,24.08
2019-06-08T09:50:38.798Z,24.72
2019-06-08T09:53:23.205Z,24.60
2019-06-08T09:55:41.424Z,24.10
2019-06-08T09:58:11.784Z,24.38
2019-06-08T10:00:41.177Z,24.55
2019-06-08T10:03:10.316Z,25.33
2019-06-08T10:05:39.544Z,24.60
2019-06-08T10:08:09.472Z,24.41
2019-06-08T10:10:38.867Z,25.07
2019-06-08T10:13:09.681Z,24.63
2019-06-08T10:15:39.063Z,25.21
2019-06-08T10:18:08.407Z,24.37
2019-06-08T10:20:38.402Z,25.25
2019-06-08T10:23:26.798Z,25.35
2019-06-08T10:25:38.668Z,24.93
2019-06-08T10:28:14.060Z,25.07
2019-06-08T10:30:38.955Z,24.80
2019-06-08T10:33:10.131Z,24.95
2019-06-08T10:35:39.542Z,25.35
2019-06-08T10:38:11.887Z,24.50
2019-06-08T10:41:06.647Z,24.26
2019-06-08T10:43:30.706Z,25.30
2019-06-08T10:46:06.821Z,24.09
2019-06-08T10:48:31.198Z,23.90
2019-06-08T10:51:02.249Z,25.08
2019-06-08T10:53:45.161Z,25.70
2019-06-08T10:56:03.417Z,26.02
2019-06-08T10:58:33.428Z,26.21
2019-06-08T11:01:04.754Z,25.89
2019-06-08T11:03:33.562Z,24.89
2019-06-08T11:06:04.412Z,23.66
2019-06-08T11:08:33.788Z,23.26
2019-06-08T11:11:04.646Z,25.46
2019-06-08T11:13:33.935Z,25.46
2019-06-08T11:16:04.424Z,25.67
2019-06-08T11:18:34.442Z,24.98
2019-06-08T11:21:05.809Z,25.52
2019-06-08T11:23:34.713Z,26.18
2019-06-08T11:26:11.133Z,25.24
2019-06-08T11:28:34.981Z,25.51
2019-06-08T11:31:05.948Z,24.85
2019-06-08T11:33:35.468Z,25.62
2019-06-08T11:36:07.213Z,24.45
2019-06-08T11:38:38.120Z,24.77
2019-06-08T11:41:10.217Z,25.87
2019-06-08T11:43:38.131Z,25.46
2019-06-08T11:46:08.431Z,25.05
2019-06-08T11:48:41.276Z,25.46
2019-06-08T11:51:10.631Z,25.79
2019-06-08T11:53:40.071Z,26.91
2019-06-08T11:56:11.648Z,26.83
2019-06-08T11:58:40.453Z,25.27
2019-06-08T12:01:13.801Z,25.88
2019-06-08T12:03:41.587Z,26.19
2019-06-08T12:06:12.981Z,25.91
2019-06-08T12:08:41.685Z,25.20
2019-06-08T12:11:17.201Z,26.14
2019-06-08T12:13:41.790Z,25.65
2019-06-08T12:16:18.063Z,25.21
2019-06-08T12:18:41.957Z,26.12
2019-06-08T12:21:13.285Z,25.49
2019-06-08T12:23:43.323Z,26.32
2019-06-08T12:26:12.628Z,26.15
2019-06-08T12:28:41.841Z,25.71
2019-06-08T12:31:16.822Z,23.83
2019-06-08T12:33:42.184Z,24.82
2019-06-08T12:36:12.675Z,26.23
2019-06-08T12:38:42.463Z,26.47
2019-06-08T12:41:12.698Z,26.53
2019-06-08T12:43:42.810Z,26.38
2019-06-08T12:46:13.372Z,26.75
2019-06-08T12:48:43.311Z,26.30
2019-06-08T12:51:13.638Z,25.80
2019-06-08T12:53:43.575Z,26.12
2019-06-08T12:56:13.562Z,26.65
2019-06-08T12:58:44.153Z,25.82
2019-06-08T13:01:14.551Z,25.73
2019-06-08T13:03:43.848Z,26.50
2019-06-08T13:06:14.037Z,26.69
2019-06-08T13:08:43.307Z,26.61
2019-06-08T13:11:12.506Z,26.40
2019-06-08T13:13:41.741Z,25.61
2019-06-08T13:16:10.908Z,25.26
2019-06-08T13:18:40.797Z,24.02
2019-06-08T13:21:21.765Z,22.80
2019-06-08T13:23:41.582Z,24.11
2019-06-08T13:26:11.519Z,23.77
2019-06-08T13:28:41.753Z,25.51
2019-06-08T13:31:14.344Z,25.59
2019-06-08T13:33:42.053Z,26.04
2019-06-08T13:36:12.323Z,25.25
2019-06-08T13:38:41.573Z,25.26
2019-06-08T13:41:10.989Z,25.43
2019-06-08T13:43:40.546Z,23.29
2019-06-08T13:46:10.149Z,22.95
2019-06-08T13:48:39.349Z,23.67
2019-06-08T13:51:11.931Z,23.21
2019-06-08T13:53:39.707Z,24.12
2019-06-08T13:56:08.940Z,23.82
2019-06-08T13:58:38.393Z,23.52
2019-06-08T14:03:51.230Z,23.65
2019-06-08T14:06:21.811Z,23.68
2019-06-08T14:08:51.575Z,23.54
2019-06-08T14:11:22.268Z,23.48
2019-06-08T14:13:52.028Z,22.77
2019-06-08T14:16:23.289Z,23.27
2019-06-08T14:18:52.388Z,22.49
2019-06-08T14:21:29.438Z,22.74
2019-06-08T14:23:52.773Z,23.31
2019-06-08T14:26:23.202Z,22.65
2019-06-08T14:28:53.153Z,22.65
2019-06-08T14:31:23.968Z,23.54
2019-06-08T14:33:53.305Z,22.70
2019-06-08T14:36:24.097Z,22.67
2019-06-08T14:38:53.801Z,22.62
2019-06-08T14:41:23.099Z,22.80
2019-06-08T14:43:52.403Z,22.26
2019-06-08T14:46:23.174Z,22.18
2019-06-08T14:48:52.792Z,22.63
2019-06-08T14:51:24.435Z,22.52
2019-06-08T14:53:53.668Z,22.32
2019-06-08T14:56:23.003Z,22.77
2019-06-08T14:58:52.249Z,22.53
2019-06-08T15:01:23.906Z,22.25
2019-06-08T15:03:52.953Z,22.67
2019-06-08T15:06:23.304Z,22.28
2019-06-08T15:08:52.450Z,22.05
2019-06-08T15:11:21.707Z,21.80
2019-06-08T15:13:50.930Z,21.85
2019-06-08T15:16:20.185Z,21.83
2019-06-08T15:18:49.372Z,21.91
2019-06-08T15:21:21.247Z,22.83
2019-06-08T15:23:49.672Z,22.88
2019-06-08T15:26:28.153Z,22.60
2019-06-08T15:28:50.269Z,22.77
2019-06-08T15:31:19.534Z,22.93
2019-06-08T15:33:48.754Z,22.58
2019-06-08T15:36:20.512Z,22.53
2019-06-08T15:38:48.951Z,22.71
2019-06-08T15:41:21.416Z,22.36
2019-06-08T15:43:49.340Z,21.93
2019-06-08T15:46:18.603Z,21.99
2019-06-08T15:48:48.520Z,22.32
2019-06-08T15:51:18.021Z,22.26
2019-06-08T15:53:47.715Z,22.38
2019-06-08T15:56:18.678Z,22.64
2019-06-08T15:58:48.717Z,21.94
2019-06-08T16:01:17.998Z,22.19
2019-06-08T16:03:47.262Z,22.60
2019-06-08T16:06:16.487Z,22.88
2019-06-08T16:08:46.028Z,22.84
2019-06-08T16:11:15.560Z,22.49
2019-06-08T16:13:44.995Z,22.32
2019-06-08T16:16:14.217Z,21.84
2019-06-08T16:18:43.470Z,22.44
2019-06-08T16:21:12.704Z,22.18
2019-06-08T16:23:41.892Z,22.85
2019-06-08T16:26:11.067Z,22.88
2019-06-08T16:28:40.308Z,22.38
2019-06-08T16:31:09.542Z,22.63
2019-06-08T16:33:39.747Z,22.19
2019-06-08T16:36:08.999Z,21.58
2019-06-08T16:38:39.150Z,21.79
2019-06-08T16:41:08.320Z,22.07
2019-06-08T16:43:37.631Z,22.17
2019-06-08T16:46:06.825Z,22.00
2019-06-08T16:48:36.377Z,21.91
2019-06-08T16:51:05.542Z,22.67
2019-06-08T16:53:35.891Z,22.91
2019-06-08T16:56:05.388Z,22.24
2019-06-08T16:58:36.102Z,22.56
2019-06-08T17:01:06.458Z,22.89
2019-06-08T17:03:36.941Z,23.08
2019-06-08T17:06:06.332Z,22.27
2019-06-08T17:08:38.746Z,21.76
2019-06-08T17:11:07.204Z,22.71
2019-06-08T17:13:36.518Z,21.61
2019-06-08T17:16:05.908Z,21.76
2019-06-08T17:18:36.231Z,22.10
2019-06-08T17:21:05.852Z,21.54
2019-06-08T17:23:36.493Z,21.71
2019-06-08T17:26:06.597Z,21.88
2019-06-08T17:28:37.183Z,22.45
2019-06-08T17:31:06.467Z,22.12
2019-06-08T17:33:35.668Z,22.25
2019-06-08T17:36:04.870Z,21.67
2019-06-08T17:38:34.122Z,21.76
2019-06-08T17:41:03.314Z,21.64
2019-06-08T17:43:32.490Z,21.35
2019-06-08T17:46:01.743Z,22.22
2019-06-08T17:48:32.374Z,22.00
2019-06-08T17:51:01.728Z,21.57
2019-06-08T17:53:31.136Z,21.55
2019-06-08T17:56:00.503Z,20.99
2019-06-08T17:58:29.726Z,21.07
2019-06-08T18:00:59.222Z,21.03
2019-06-08T18:03:28.328Z,21.31
2019-06-08T18:05:58.127Z,21.08
2019-06-08T18:08:28.240Z,21.09
2019-06-08T18:10:57.718Z,21.16
2019-06-08T18:13:27.317Z,20.63
2019-06-08T18:15:57.607Z,20.78
2019-06-08T18:18:28.269Z,20.38
2019-06-08T18:20:58.099Z,20.61
2019-06-08T18:23:27.925Z,20.41
2019-06-08T18:25:58.154Z,20.52
2019-06-08T18:28:28.205Z,20.06
2019-06-08T18:30:58.188Z,20.26
2019-06-08T18:33:27.729Z,20.06
2019-06-08T18:35:57.654Z,20.02
2019-06-08T18:38:27.414Z,20.16
2019-06-08T18:40:57.485Z,20.03
2019-06-08T18:43:27.939Z,19.49
2019-06-08T18:45:57.729Z,19.66
2019-06-08T18:48:28.187Z,19.38
2019-06-08T18:50:57.478Z,18.95
2019-06-08T18:53:27.215Z,18.95
2019-06-08T18:55:58.194Z,19.19
2019-06-08T18:58:28.026Z,19.20
2019-06-08T19:00:57.580Z,19.21
2019-06-08T19:03:28.260Z,18.79
2019-06-08T19:05:58.444Z,18.79
2019-06-08T19:08:28.193Z,18.59
2019-06-08T19:10:57.715Z,18.62
2019-06-08T19:13:27.197Z,19.09
2019-06-08T19:15:59.576Z,19.27
2019-06-08T19:18:29.338Z,19.01
2019-06-08T19:20:58.395Z,19.06
2019-06-08T19:23:28.061Z,19.13
2019-06-08T19:25:57.897Z,19.60
2019-06-08T19:28:35.873Z,19.55
2019-06-08T19:30:59.304Z,19.63
2019-06-08T19:33:28.712Z,19.72
2019-06-08T19:35:58.452Z,19.72
2019-06-08T19:38:28.560Z,19.90
2019-06-08T19:41:00.238Z,19.68
2019-06-08T19:43:29.227Z,19.58
2019-06-08T19:45:58.593Z,19.66
2019-06-08T19:48:31.107Z,19.54
2019-06-08T19:50:58.967Z,18.88
2019-06-08T19:53:28.713Z,18.86
2019-06-08T19:55:58.251Z,18.17
2019-06-08T19:58:28.311Z,18.05
2019-06-08T20:00:58.749Z,18.31
2019-06-08T20:03:28.189Z,18.27
2019-06-08T20:05:57.416Z,18.57
2019-06-08T20:08:28.577Z,18.83
2019-06-08T20:10:57.619Z,18.29
2019-06-08T20:13:26.852Z,17.85
2019-06-08T20:15:59.590Z,17.74
2019-06-08T20:18:27.941Z,18.28
2019-06-08T20:20:58.625Z,18.40
2019-06-08T20:23:28.136Z,18.10
2019-06-08T20:26:00.612Z,17.73
2019-06-08T20:28:29.212Z,17.88
2019-06-08T20:30:59.589Z,17.98
2019-06-08T20:33:28.901Z,17.96
2019-06-08T20:35:58.625Z,18.20
2019-06-08T20:38:37.199Z,18.36
2019-06-08T20:40:58.927Z,18.40
2019-06-08T20:43:28.163Z,18.38
2019-06-08T20:45:57.603Z,18.37
2019-06-08T20:48:27.502Z,18.34
2019-06-08T20:50:57.286Z,18.37
2019-06-08T20:53:28.279Z,18.22
2019-06-08T20:55:57.653Z,17.73
2019-06-08T20:58:28.347Z,17.79
2019-06-08T21:00:57.786Z,17.77
2019-06-08T21:12:58.849Z,16.64
2019-06-08T21:15:28.205Z,16.72
2019-06-08T21:17:57.647Z,17.03
2019-06-08T21:20:28.264Z,16.77
2019-06-08T21:22:59.622Z,15.86
2019-06-08T21:25:28.483Z,14.77
2019-06-08T21:27:58.546Z,14.60
2019-06-08T21:30:28.483Z,15.10
2019-06-08T21:33:00.563Z,15.90
2019-06-08T21:35:29.049Z,15.68
2019-06-08T21:38:01.015Z,16.10
2019-06-08T21:40:29.172Z,15.77
2019-06-08T21:43:01.102Z,16.20
2019-06-08T21:45:29.750Z,16.50
2019-06-08T21:48:00.504Z,14.90
2019-06-08T21:50:29.743Z,14.12
2019-06-08T21:53:00.421Z,14.38
2019-06-08T21:55:29.724Z,15.02
2019-06-08T21:58:01.484Z,15.32
2019-06-08T22:00:39.039Z,15.63
2019-06-08T22:03:02.225Z,14.74
2019-06-08T22:05:31.471Z,15.24
2019-06-08T22:08:00.723Z,15.83
2019-06-08T22:10:29.926Z,15.42
2019-06-08T22:13:00.960Z,15.21
2019-06-08T22:15:30.422Z,15.36
2019-06-08T22:18:01.200Z,15.03
2019-06-08T22:20:30.758Z,14.96
2019-06-08T22:23:00.968Z,14.92
2019-06-08T22:25:33.214Z,14.84
2019-06-08T22:28:01.309Z,14.62
2019-06-08T22:30:39.271Z,15.34
2019-06-08T22:33:01.657Z,15.00
2019-06-08T22:35:30.897Z,14.11
2019-06-08T22:38:00.960Z,13.81
2019-06-08T22:40:30.276Z,14.09
2019-06-08T22:43:00.861Z,13.74
2019-06-08T22:45:30.155Z,14.56
2019-06-08T22:48:00.909Z,14.08
2019-06-08T22:50:30.283Z,14.04
2019-06-08T22:53:01.066Z,13.87
2019-06-08T22:55:30.533Z,13.66
2019-06-08T22:58:01.483Z,13.38
2019-06-08T23:00:30.728Z,13.10
2019-06-08T23:03:02.755Z,14.05
2019-06-08T23:05:30.925Z,14.34
2019-06-08T23:08:03.562Z,13.82
2019-06-08T23:10:31.050Z,14.05
2019-06-08T23:13:02.309Z,14.01
2019-06-08T23:15:31.258Z,14.41
2019-06-08T23:18:02.411Z,14.79
2019-06-08T23:20:31.477Z,14.98
2019-06-08T23:23:01.559Z,15.06
2019-06-08T23:25:31.790Z,14.93
2019-06-08T23:28:03.176Z,14.84
2019-06-08T23:30:32.146Z,14.70
2019-06-08T23:33:04.260Z,14.16
2019-06-08T23:35:56.707Z,13.65
2019-06-08T23:38:04.978Z,14.09
2019-06-08T23:40:34.191Z,14.62
2019-06-08T23:43:04.267Z,14.26
2019-06-08T23:45:33.444Z,14.28
2019-06-08T23:48:02.875Z,14.38
2019-06-08T23:50:32.096Z,14.58
2019-06-08T23:53:02.302Z,14.13
2019-06-08T23:55:31.571Z,13.39
2019-06-08T23:58:01.516Z,13.16
